Time;durP1;ratioP1;P1;durP2;ratioP2;P2;SDS_P1;SDS_P2;PMS_P1;PMS_P2;Temp;Humidity;BMP_temperature;BMP_pressure;BME280_temperature;BME280_humidity;BME280_pressure;Samples;Min_cycle;Max_cycle;Signal;HPM_P1;HPM_P2
2022/09/15 00:00:48;;;;;;;2.17;1.98;;;17.40;99.90;;;;;;5047520;28;20025;-87
2022/09/15 00:03:13;;;;;;;3.05;1.80;;;17.40;99.90;;;;;;5052261;28;20021;-87
2022/09/15 00:05:39;;;;;;;2.60;1.90;;;17.40;99.90;;;;;;5051559;28;20025;-88
2022/09/15 00:08:05;;;;;;;2.15;1.85;;;17.40;99.90;;;;;;5050069;28;20362;-87
2022/09/15 00:10:31;;;;;;;2.63;1.70;;;17.40;99.90;;;;;;5067366;28;20060;-88
2022/09/15 00:12:57;;;;;;;2.38;1.98;;;17.40;99.90;;;;;;5050994;28;20033;-88
2022/09/15 00:15:23;;;;;;;4.40;1.98;;;17.40;99.90;;;;;;5034521;28;20068;-87
2022/09/15 00:17:50;;;;;;;2.45;1.77;;;17.40;99.90;;;;;;5036955;28;20327;-87
2022/09/15 00:20:19;;;;;;;2.20;1.70;;;17.40;99.90;;;;;;5031543;28;20122;-88
2022/09/15 00:22:45;;;;;;;2.33;1.90;;;17.40;99.90;;;;;;5033226;28;20029;-88
2022/09/15 00:25:12;;;;;;;3.85;1.63;;;17.40;99.90;;;;;;5048724;28;20068;-87
2022/09/15 00:27:38;;;;;;;6.05;1.80;;;17.40;99.90;;;;;;5032845;28;20029;-87
2022/09/15 00:30:04;;;;;;;3.53;2.10;;;17.40;99.90;;;;;;5049536;28;20428;-87
2022/09/15 00:32:31;;;;;;;1.90;1.70;;;17.40;99.90;;;;;;5033687;28;20063;-87
2022/09/15 00:34:56;;;;;;;3.80;2.00;;;17.40;99.90;;;;;;5033704;28;20031;-87
2022/09/15 00:37:22;;;;;;;2.15;1.55;;;17.40;99.90;;;;;;5033903;28;20037;-87
2022/09/15 00:39:48;;;;;;;3.55;1.83;;;17.40;99.90;;;;;;5032767;28;20085;-88
2022/09/15 00:42:16;;;;;;;3.33;1.85;;;17.40;99.90;;;;;;5048699;28;20028;-87
2022/09/15 00:44:53;;;;;;;3.33;1.73;;;17.40;99.90;;;;;;5032308;28;20955;-87
2022/09/15 00:47:23;;;;;;;4.95;2.28;;;17.50;99.90;;;;;;5033831;28;20029;-87
2022/09/15 00:49:55;;;;;;;4.18;1.80;;;17.50;99.90;;;;;;5031680;28;20048;-87
2022/09/15 00:52:42;;;;;;;2.40;1.80;;;17.50;99.90;;;;;;5029897;28;20028;-88
2022/09/15 00:55:16;;;;;;;1.52;1.42;;;17.40;99.90;;;;;;5051110;28;20043;-87
2022/09/15 00:57:48;;;;;;;2.72;1.77;;;17.50;99.90;;;;;;5048792;28;20055;-87
2022/09/15 01:00:18;;;;;;;2.88;1.80;;;17.40;99.90;;;;;;5034549;28;20060;-87
2022/09/15 01:02:46;;;;;;;2.50;1.60;;;17.50;99.90;;;;;;5047021;28;20502;-87
2022/09/15 01:05:14;;;;;;;2.92;1.52;;;17.40;99.90;;;;;;5031233;28;20067;-87
2022/09/15 01:07:55;;;;;;;3.10;1.98;;;17.50;99.90;;;;;;5049551;28;20029;-88
2022/09/15 01:10:27;;;;;;;1.60;1.45;;;17.40;99.90;;;;;;5032315;28;20136;-87
2022/09/15 01:12:58;;;;;;;2.08;1.58;;;17.40;99.90;;;;;;5031710;28;20021;-87
2022/09/15 01:15:49;;;;;;;3.40;1.65;;;17.50;99.90;;;;;;5033734;28;20084;-87
2022/09/15 01:18:43;;;;;;;1.73;1.63;;;17.40;99.90;;;;;;5028066;28;20029;-87
2022/09/15 01:21:50;;;;;;;3.15;1.95;;;17.40;99.90;;;;;;5030346;28;20029;-87
2022/09/15 01:24:54;;;;;;;3.45;1.65;;;17.40;99.90;;;;;;5032447;28;20040;-87
2022/09/15 01:27:59;;;;;;;4.32;2.47;;;17.50;99.90;;;;;;5034559;28;20036;-87
2022/09/15 01:30:25;;;;;;;3.17;1.90;;;17.50;99.90;;;;;;5007642;28;20101;-87
2022/09/15 01:33:14;;;;;;;3.92;1.70;;;17.50;99.90;;;;;;5063371;28;20081;-87
2022/09/15 01:35:47;;;;;;;2.63;1.80;;;17.40;99.90;;;;;;5040826;28;20051;-88
2022/09/15 01:38:32;;;;;;;1.80;1.70;;;17.40;99.90;;;;;;5064395;28;20096;-87
2022/09/15 01:40:57;;;;;;;1.65;1.50;;;17.40;99.90;;;;;;5047800;28;20029;-87
2022/09/15 01:43:25;;;;;;;1.58;1.48;;;17.40;99.90;;;;;;5064255;28;20028;-87
2022/09/15 01:45:52;;;;;;;4.05;1.48;;;17.40;99.90;;;;;;5049119;28;20681;-87
2022/09/15 01:48:22;;;;;;;2.03;1.20;;;17.40;99.90;;;;;;5049912;28;20033;-87
2022/09/15 01:50:54;;;;;;;2.60;1.48;;;17.40;99.90;;;;;;5032236;28;20036;-87
2022/09/15 01:53:21;;;;;;;2.83;1.30;;;17.40;99.90;;;;;;5047222;28;20493;-87
2022/09/15 01:56:01;;;;;;;1.88;1.40;;;17.40;99.90;;;;;;5048176;28;20039;-87
2022/09/15 01:58:27;;;;;;;1.77;1.38;;;17.40;99.90;;;;;;5063899;28;20036;-87
2022/09/15 02:00:59;;;;;;;1.38;1.27;;;17.40;99.90;;;;;;5062204;28;20036;-87
2022/09/15 02:03:43;;;;;;;3.42;1.30;;;17.30;99.90;;;;;;5065212;28;20271;-87
2022/09/15 02:06:52;;;;;;;3.17;1.67;;;17.30;99.90;;;;;;5046839;28;20685;-86
2022/09/15 02:09:34;;;;;;;1.13;1.10;;;17.30;99.90;;;;;;5064214;28;20533;-87
2022/09/15 02:12:35;;;;;;;3.22;1.25;;;17.30;99.90;;;;;;5062826;28;20544;-87
2022/09/15 02:15:09;;;;;;;1.75;1.30;;;17.30;99.90;;;;;;5063610;28;20436;-87
2022/09/15 02:17:44;;;;;;;1.90;1.30;;;17.30;99.90;;;;;;5047586;28;20496;-87
2022/09/15 02:20:14;;;;;;;1.58;1.30;;;17.40;99.90;;;;;;5065779;28;20072;-87
2022/09/15 02:22:46;;;;;;;3.13;1.30;;;17.30;99.90;;;;;;5061928;28;20096;-87
2022/09/15 02:25:17;;;;;;;2.38;1.02;;;17.30;99.90;;;;;;5047697;28;20056;-87
2022/09/15 02:27:49;;;;;;;1.50;1.30;;;17.30;99.90;;;;;;5063456;28;20036;-87
2022/09/15 02:30:18;;;;;;;2.72;1.38;;;17.30;99.90;;;;;;5064242;28;20049;-87
2022/09/15 02:32:54;;;;;;;1.30;1.17;;;17.30;99.90;;;;;;5045316;28;20033;-87
2022/09/15 02:35:22;;;;;;;1.67;1.23;;;17.20;99.90;;;;;;5063400;28;20106;-87
2022/09/15 02:37:48;;;;;;;1.40;1.23;;;17.20;99.90;;;;;;5048283;28;20056;-87
2022/09/15 02:40:14;;;;;;;2.13;1.40;;;17.20;99.90;;;;;;5047150;28;20052;-87
2022/09/15 02:42:41;;;;;;;1.50;1.17;;;17.20;99.90;;;;;;5045581;28;20077;-87
2022/09/15 02:45:07;;;;;;;2.45;1.30;;;17.20;99.90;;;;;;5050413;28;20017;-88
2022/09/15 02:47:33;;;;;;;1.35;1.25;;;17.10;99.90;;;;;;5049932;28;20170;-87
2022/09/15 02:49:59;;;;;;;2.38;1.50;;;17.10;99.90;;;;;;5051408;28;20045;-87
2022/09/15 02:52:25;;;;;;;1.60;1.42;;;17.10;99.90;;;;;;5035069;28;20033;-87
2022/09/15 02:54:50;;;;;;;2.45;1.33;;;17.00;99.90;;;;;;5035510;28;20092;-87
2022/09/15 02:57:16;;;;;;;1.60;1.50;;;17.00;99.90;;;;;;5034945;28;20640;-87
2022/09/15 03:02:26;;;;;;;2.22;1.40;;;17.00;99.90;;;;;;5051753;28;20059;-86
2022/09/15 03:04:52;;;;;;;1.15;1.00;;;17.00;99.90;;;;;;5050319;28;20025;-87
2022/09/15 03:07:18;;;;;;;1.60;1.50;;;17.00;99.90;;;;;;5035176;28;20036;-87
2022/09/15 03:09:44;;;;;;;1.65;1.50;;;17.00;99.90;;;;;;5052439;28;20437;-87
2022/09/15 03:12:10;;;;;;;1.45;1.30;;;17.00;99.90;;;;;;5051466;28;20024;-87
2022/09/15 03:14:36;;;;;;;2.08;1.83;;;17.00;99.90;;;;;;5073918;28;20029;-87
2022/09/15 03:17:02;;;;;;;5.20;1.70;;;16.90;99.90;;;;;;5060010;28;20851;-87
2022/09/15 03:19:28;;;;;;;3.10;1.67;;;17.00;99.90;;;;;;5065059;28;20029;-87
2022/09/15 03:21:53;;;;;;;3.65;1.60;;;16.90;99.90;;;;;;5067406;28;20029;-87
2022/09/15 03:24:19;;;;;;;3.85;1.65;;;16.90;99.90;;;;;;5062924;28;20053;-87
2022/09/15 03:26:47;;;;;;;3.33;1.77;;;16.90;99.90;;;;;;5061697;28;20053;-87
2022/09/15 03:29:12;;;;;;;3.70;1.58;;;16.90;99.90;;;;;;5058446;28;21526;-87
2022/09/15 03:31:38;;;;;;;2.45;1.95;;;16.90;99.90;;;;;;5079370;28;20028;-87
2022/09/15 03:34:04;;;;;;;2.67;1.80;;;16.90;99.90;;;;;;5083228;28;20044;-87
2022/09/15 03:36:30;;;;;;;3.92;1.80;;;16.90;99.90;;;;;;5060705;28;20032;-87
2022/09/15 03:38:59;;;;;;;3.15;1.80;;;16.90;99.90;;;;;;5060842;28;20040;-87
2022/09/15 03:41:26;;;;;;;2.28;1.70;;;16.90;99.90;;;;;;5059485;28;20494;-87
2022/09/15 03:43:52;;;;;;;5.50;2.15;;;16.90;99.90;;;;;;5059102;28;20025;-87
2022/09/15 03:46:19;;;;;;;2.65;1.50;;;16.90;99.90;;;;;;5061805;28;20061;-87
2022/09/15 03:48:46;;;;;;;2.45;1.70;;;16.90;99.90;;;;;;5065926;28;20082;-87
2022/09/15 03:51:12;;;;;;;3.85;1.70;;;16.80;99.90;;;;;;5076290;28;20481;-87
2022/09/15 03:53:39;;;;;;;2.30;1.65;;;16.90;99.90;;;;;;5058062;28;20025;-86
2022/09/15 03:56:23;;;;;;;3.75;1.70;;;16.90;99.90;;;;;;5077728;28;20039;-86
2022/09/15 03:58:50;;;;;;;3.83;1.95;;;16.90;99.90;;;;;;5059446;28;20079;-87
2022/09/15 04:01:19;;;;;;;3.38;2.00;;;16.80;99.90;;;;;;5073920;28;21615;-87
2022/09/15 04:03:46;;;;;;;3.50;1.92;;;16.80;99.90;;;;;;5057286;28;20483;-87
2022/09/15 04:06:12;;;;;;;3.08;1.80;;;16.90;99.90;;;;;;5057685;28;20018;-87
2022/09/15 04:08:38;;;;;;;2.22;1.40;;;16.90;99.90;;;;;;5059487;28;20045;-87
2022/09/15 04:11:05;;;;;;;3.45;2.00;;;16.90;99.90;;;;;;5062581;28;20021;-87
2022/09/15 04:13:31;;;;;;;4.30;1.85;;;16.90;99.90;;;;;;5061340;28;20029;-87
2022/09/15 04:16:02;;;;;;;1.50;1.40;;;17.00;99.90;;;;;;5060176;28;20029;-86
2022/09/15 04:18:29;;;;;;;1.77;1.40;;;16.90;99.90;;;;;;5054902;28;20025;-87
2022/09/15 04:20:58;;;;;;;1.75;1.50;;;17.00;99.90;;;;;;5059768;28;20037;-87
2022/09/15 04:23:24;;;;;;;4.13;1.60;;;16.90;99.90;;;;;;5058900;28;20028;-86
2022/09/15 04:25:55;;;;;;;2.00;1.50;;;16.90;99.90;;;;;;5059741;28;20033;-87
2022/09/15 04:28:21;;;;;;;2.97;1.48;;;16.90;99.90;;;;;;5058792;28;20036;-87
2022/09/15 04:30:46;;;;;;;2.70;1.30;;;16.90;99.90;;;;;;5057704;28;20037;-87
2022/09/15 04:33:12;;;;;;;1.92;1.38;;;17.00;99.90;;;;;;5078754;28;20017;-84
2022/09/15 04:35:38;;;;;;;3.50;1.23;;;17.00;99.90;;;;;;5074522;28;20052;-85
2022/09/15 04:38:04;;;;;;;2.95;1.77;;;17.00;99.90;;;;;;5062879;28;20088;-85
2022/09/15 04:40:30;;;;;;;3.13;1.35;;;17.00;99.90;;;;;;5059191;28;20025;-85
2022/09/15 04:42:56;;;;;;;2.92;1.75;;;17.00;99.90;;;;;;5060860;28;20044;-84
2022/09/15 04:45:21;;;;;;;1.70;1.60;;;17.00;99.90;;;;;;5061385;28;20021;-85
2022/09/15 04:47:47;;;;;;;1.60;1.20;;;17.00;99.90;;;;;;5062694;28;20040;-85
2022/09/15 04:50:13;;;;;;;1.70;1.30;;;17.00;99.90;;;;;;5060736;28;20024;-84
2022/09/15 04:52:39;;;;;;;2.17;1.50;;;17.00;99.90;;;;;;5076405;28;20028;-84
2022/09/15 04:55:04;;;;;;;2.72;1.27;;;17.00;99.90;;;;;;5060656;28;20059;-84
2022/09/15 04:57:31;;;;;;;1.50;1.40;;;17.00;99.90;;;;;;5058577;28;20029;-85
2022/09/15 04:59:57;;;;;;;1.50;1.30;;;17.00;99.90;;;;;;5073917;28;20037;-85
2022/09/15 05:02:23;;;;;;;2.28;1.38;;;17.00;99.90;;;;;;5056830;28;20037;-84
2022/09/15 05:04:50;;;;;;;1.90;1.30;;;17.00;99.90;;;;;;5063108;28;20097;-85
2022/09/15 05:07:16;;;;;;;1.88;1.33;;;17.00;99.90;;;;;;5061611;28;20025;-85
2022/09/15 05:09:42;;;;;;;4.32;1.40;;;17.00;99.90;;;;;;5077768;28;20138;-84
2022/09/15 05:12:08;;;;;;;1.67;1.20;;;17.00;99.90;;;;;;5063086;28;20029;-87
2022/09/15 05:14:33;;;;;;;5.38;1.10;;;17.00;99.90;;;;;;5045637;28;20037;-87
2022/09/15 05:16:59;;;;;;;1.52;1.10;;;17.00;99.90;;;;;;5078144;28;20065;-87
2022/09/15 05:19:25;;;;;;;1.13;1.02;;;17.00;99.90;;;;;;5071647;28;20072;-87
2022/09/15 05:21:50;;;;;;;2.90;1.25;;;17.10;99.90;;;;;;5061927;28;20035;-87
2022/09/15 05:24:16;;;;;;;1.25;1.02;;;17.00;99.90;;;;;;5060838;28;20032;-86
2022/09/15 05:26:42;;;;;;;1.83;1.08;;;17.10;99.90;;;;;;5056903;28;20024;-86
2022/09/15 05:29:07;;;;;;;1.10;1.00;;;17.00;99.90;;;;;;5056615;28;20108;-86
2022/09/15 05:31:33;;;;;;;2.95;1.00;;;17.10;99.90;;;;;;5074902;28;20040;-87
2022/09/15 05:34:01;;;;;;;2.25;1.05;;;17.10;99.90;;;;;;5073472;28;20037;-87
2022/09/15 05:36:27;;;;;;;;;;;17.10;99.90;;;;;;5070832;28;20036;-85
2022/09/15 05:38:55;;;;;;;1.08;0.95;;;17.10;99.90;;;;;;5071540;28;19916;-87
2022/09/15 05:41:20;;;;;;;;;;;17.10;99.90;;;;;;5048381;28;20541;-86
2022/09/15 05:43:47;;;;;;;2.38;1.00;;;17.10;99.90;;;;;;5074682;28;19959;-86
2022/09/15 05:46:14;;;;;;;1.10;0.90;;;17.10;99.90;;;;;;5056591;28;20025;-86
2022/09/15 05:48:40;;;;;;;1.73;1.15;;;17.10;99.90;;;;;;5059703;28;20040;-86
2022/09/15 05:51:06;;;;;;;2.40;1.15;;;17.20;99.90;;;;;;5074185;28;20025;-86
2022/09/15 05:53:33;;;;;;;1.35;1.08;;;17.20;99.90;;;;;;5059837;28;20110;-86
2022/09/15 05:56:04;;;;;;;2.00;1.00;;;17.10;99.90;;;;;;5059794;28;20038;-86
2022/09/15 05:58:31;;;;;;;1.20;0.90;;;17.20;99.90;;;;;;5061196;28;20037;-86
2022/09/15 06:01:06;;;;;;;0.98;0.85;;;17.20;99.90;;;;;;5079325;28;20095;-86
2022/09/15 06:03:33;;;;;;;2.47;0.90;;;17.20;99.90;;;;;;5072929;28;20062;-86
2022/09/15 06:06:00;;;;;;;0.80;0.80;;;17.20;99.90;;;;;;5076813;28;20079;-86
2022/09/15 06:08:39;;;;;;;2.35;1.00;;;17.20;99.90;;;;;;5060347;28;20040;-86
2022/09/15 06:11:08;;;;;;;1.33;1.00;;;17.20;99.90;;;;;;5070417;28;20029;-86
2022/09/15 06:13:34;;;;;;;1.17;0.82;;;17.20;99.90;;;;;;5076939;28;20033;-86
2022/09/15 06:16:08;;;;;;;1.85;1.05;;;17.20;99.90;;;;;;5075966;28;20037;-85
2022/09/15 06:18:36;;;;;;;0.70;0.70;;;17.30;99.90;;;;;;5060358;28;20095;-85
2022/09/15 06:21:13;;;;;;;1.97;0.90;;;17.20;99.90;;;;;;5080382;28;20021;-85
2022/09/15 06:23:39;;;;;;;2.10;1.10;;;17.20;99.90;;;;;;5077783;28;20074;-86
2022/09/15 06:26:10;;;;;;;1.75;0.90;;;17.20;99.90;;;;;;5061554;28;20021;-86
2022/09/15 06:28:38;;;;;;;0.90;0.90;;;17.20;99.90;;;;;;5058926;28;20502;-86
2022/09/15 06:31:08;;;;;;;0.93;0.50;;;17.20;99.90;;;;;;5061808;28;20044;-86
2022/09/15 06:33:33;;;;;;;1.13;1.00;;;17.20;99.90;;;;;;5049608;28;20043;-86
2022/09/15 06:36:01;;;;;;;2.10;1.02;;;17.30;99.90;;;;;;5054801;28;20092;-85
2022/09/15 06:38:27;;;;;;;1.58;0.80;;;17.30;99.90;;;;;;5060142;28;20461;-86
2022/09/15 06:40:57;;;;;;;1.38;0.85;;;17.30;99.90;;;;;;5057743;28;20071;-86
2022/09/15 06:43:23;;;;;;;2.50;1.00;;;17.40;99.90;;;;;;5075018;28;20037;-87
2022/09/15 06:45:49;;;;;;;1.55;0.95;;;17.40;99.90;;;;;;5058535;28;20017;-86
2022/09/15 06:48:15;;;;;;;1.73;0.90;;;17.40;99.90;;;;;;5079625;28;20033;-85
2022/09/15 06:50:40;;;;;;;1.50;0.90;;;17.40;99.90;;;;;;5076175;28;20021;-87
2022/09/15 06:53:06;;;;;;;12.30;1.65;;;17.40;99.90;;;;;;5061732;28;20052;-86
2022/09/15 06:55:32;;;;;;;0.90;0.75;;;17.40;99.90;;;;;;5078423;28;20064;-85
2022/09/15 06:57:58;;;;;;;0.80;0.80;;;17.30;99.90;;;;;;5077326;28;20107;-85
2022/09/15 07:00:24;;;;;;;1.70;1.00;;;17.30;99.90;;;;;;5075357;28;20056;-86
2022/09/15 07:02:50;;;;;;;0.80;0.80;;;17.40;99.90;;;;;;5057920;28;20032;-86
2022/09/15 07:05:16;;;;;;;1.23;1.02;;;17.40;99.90;;;;;;5056950;28;20037;-85
2022/09/15 07:07:42;;;;;;;1.13;0.88;;;17.40;99.90;;;;;;5071701;28;20055;-86
2022/09/15 07:10:08;;;;;;;2.33;0.80;;;17.40;99.90;;;;;;5056049;28;20049;-86
2022/09/15 07:12:34;;;;;;;1.75;1.00;;;17.40;99.90;;;;;;5069626;28;20025;-86
2022/09/15 07:14:59;;;;;;;1.23;0.80;;;17.50;99.90;;;;;;5058633;28;20163;-85
2022/09/15 07:17:26;;;;;;;0.68;0.68;;;17.50;99.90;;;;;;5073446;28;20506;-86
2022/09/15 07:19:52;;;;;;;1.80;0.95;;;17.50;99.90;;;;;;5074216;28;20037;-86
2022/09/15 07:22:17;;;;;;;1.85;0.95;;;17.50;99.90;;;;;;5074841;28;20507;-85
2022/09/15 07:24:43;;;;;;;1.52;0.82;;;17.50;99.90;;;;;;5055640;28;20033;-86
2022/09/15 07:27:09;;;;;;;1.55;1.00;;;17.60;99.90;;;;;;5055096;28;20136;-84
2022/09/15 07:29:37;;;;;;;1.52;0.90;;;17.60;99.90;;;;;;5073056;28;20017;-86
2022/09/15 07:32:02;;;;;;;0.90;0.90;;;17.70;99.90;;;;;;5070521;28;20132;-85
2022/09/15 07:34:28;;;;;;;1.98;1.15;;;17.70;99.90;;;;;;5063375;28;20052;-86
2022/09/15 07:36:53;;;;;;;1.77;0.80;;;17.70;99.90;;;;;;5076677;28;20078;-86
2022/09/15 07:39:19;;;;;;;2.05;0.98;;;17.80;99.90;;;;;;5058046;28;20033;-86
2022/09/15 07:41:45;;;;;;;1.10;0.95;;;17.80;99.90;;;;;;5053143;28;20037;-86
2022/09/15 07:44:12;;;;;;;1.27;0.90;;;17.80;99.90;;;;;;5072724;28;20115;-86
2022/09/15 07:46:39;;;;;;;1.70;1.10;;;17.80;99.90;;;;;;5058801;28;20067;-86
2022/09/15 07:49:05;;;;;;;2.17;1.10;;;17.80;99.90;;;;;;5057072;28;20055;-86
2022/09/15 07:51:31;;;;;;;2.20;1.00;;;17.80;99.90;;;;;;5053752;28;20024;-86
2022/09/15 07:53:57;;;;;;;2.80;1.08;;;17.90;99.90;;;;;;5058355;28;20029;-86
2022/09/15 07:56:23;;;;;;;0.80;0.80;;;18.00;99.90;;;;;;5058575;28;20030;-85
2022/09/15 07:58:49;;;;;;;1.33;0.77;;;18.30;99.90;;;;;;5060453;28;20033;-86
2022/09/15 08:01:17;;;;;;;3.65;1.10;;;18.50;99.90;;;;;;5056724;28;21109;-85
2022/09/15 08:03:48;;;;;;;0.80;0.80;;;18.50;99.90;;;;;;5074119;28;20215;-86
2022/09/15 08:06:15;;;;;;;1.05;0.95;;;18.50;99.90;;;;;;5075359;28;20033;-86
2022/09/15 08:08:42;;;;;;;1.08;0.80;;;18.50;99.90;;;;;;5060565;28;20033;-86
2022/09/15 08:11:13;;;;;;;1.77;0.90;;;18.50;99.90;;;;;;5075578;28;20076;-86
2022/09/15 08:13:39;;;;;;;1.00;0.90;;;18.50;99.90;;;;;;5074464;28;20029;-86
2022/09/15 08:16:09;;;;;;;1.38;0.90;;;18.60;99.90;;;;;;5062495;28;20039;-86
2022/09/15 08:18:35;;;;;;;1.65;0.90;;;18.80;99.90;;;;;;5077189;28;20041;-86
2022/09/15 08:21:12;;;;;;;1.27;0.98;;;18.90;99.90;;;;;;5059663;28;20021;-86
2022/09/15 08:23:38;;;;;;;1.15;1.05;;;19.00;99.90;;;;;;5053599;28;20037;-86
2022/09/15 08:26:05;;;;;;;0.93;0.77;;;19.00;99.90;;;;;;5058245;28;20033;-86
2022/09/15 08:28:31;;;;;;;1.23;1.02;;;19.00;99.90;;;;;;5056267;28;20027;-86
2022/09/15 08:30:58;;;;;;;1.60;1.40;;;19.10;99.90;;;;;;5058309;28;20032;-86
2022/09/15 08:33:24;;;;;;;1.77;0.82;;;19.40;99.90;;;;;;5058571;28;20522;-86
2022/09/15 08:35:50;;;;;;;1.85;1.08;;;19.70;99.90;;;;;;5059292;28;20025;-84
2022/09/15 08:38:15;;;;;;;1.38;1.00;;;19.90;99.90;;;;;;5080510;28;20037;-86
2022/09/15 08:40:44;;;;;;;1.00;0.90;;;20.20;99.90;;;;;;5060348;28;20056;-86
2022/09/15 08:43:22;;;;;;;1.65;1.02;;;20.40;99.90;;;;;;5050379;28;20029;-86
2022/09/15 08:45:57;;;;;;;1.95;0.95;;;20.40;99.90;;;;;;5074445;28;20068;-86
2022/09/15 08:48:28;;;;;;;1.10;1.00;;;20.40;99.90;;;;;;5064364;28;20029;-85
2022/09/15 08:50:56;;;;;;;1.75;0.75;;;20.50;99.90;;;;;;5072878;28;20005;-86
2022/09/15 08:53:33;;;;;;;0.93;0.70;;;20.60;99.90;;;;;;5084981;28;20028;-86
2022/09/15 08:56:03;;;;;;;1.15;0.90;;;20.30;99.90;;;;;;5065180;28;20033;-86
2022/09/15 08:58:33;;;;;;;1.00;0.98;;;20.10;99.90;;;;;;5074378;28;20006;-86
2022/09/15 09:01:27;;;;;;;1.83;1.10;;;19.90;99.90;;;;;;5074412;28;20060;-86
2022/09/15 09:04:31;;;;;;;0.80;0.80;;;19.90;99.90;;;;;;5067253;28;20048;-86
2022/09/15 09:07:43;;;;;;;1.67;0.90;;;20.00;99.90;;;;;;5072207;28;20360;-86
2022/09/15 09:10:19;;;;;;;1.20;1.02;;;20.20;99.90;;;;;;5066978;28;20425;-86
2022/09/15 09:12:44;;;;;;;1.23;1.00;;;20.20;99.90;;;;;;5056481;28;20025;-84
2022/09/15 09:16:02;;;;;;;2.05;1.10;;;20.20;99.90;;;;;;5059377;28;20036;-86
2022/09/15 09:19:02;;;;;;;1.02;1.00;;;20.10;99.90;;;;;;5001505;28;20037;-86
2022/09/15 09:21:40;;;;;;;0.90;0.90;;;19.90;99.90;;;;;;5072399;28;20082;-86
2022/09/15 09:24:20;;;;;;;1.48;0.80;;;19.90;99.90;;;;;;5066466;28;20044;-86
2022/09/15 09:26:50;;;;;;;2.88;1.20;;;19.80;99.90;;;;;;5048389;28;20578;-86
2022/09/15 09:29:18;;;;;;;1.65;0.88;;;19.80;99.90;;;;;;5065005;28;20027;-86
2022/09/15 09:31:49;;;;;;;2.22;0.95;;;19.70;99.90;;;;;;5068756;28;20029;-86
2022/09/15 09:34:40;;;;;;;1.73;1.15;;;19.70;99.90;;;;;;5059085;28;20045;-86
2022/09/15 09:37:12;;;;;;;1.17;1.00;;;19.70;99.90;;;;;;5067714;28;20071;-86
2022/09/15 09:39:38;;;;;;;0.82;0.80;;;19.70;99.90;;;;;;5054054;28;20493;-86
2022/09/15 09:42:05;;;;;;;0.77;0.77;;;19.60;99.90;;;;;;5045820;28;20032;-86
2022/09/15 09:44:32;;;;;;;1.30;1.20;;;19.70;99.90;;;;;;5074022;28;20025;-86
2022/09/15 09:46:59;;;;;;;0.90;0.90;;;19.70;99.90;;;;;;5073242;28;20148;-86
2022/09/15 09:49:29;;;;;;;0.90;0.90;;;19.70;99.90;;;;;;5074091;28;20025;-86
2022/09/15 09:51:58;;;;;;;1.20;0.80;;;19.80;99.90;;;;;;5051201;28;20509;-86
2022/09/15 09:54:27;;;;;;;1.38;1.00;;;19.80;99.90;;;;;;5062783;28;20031;-86
2022/09/15 09:56:54;;;;;;;1.48;1.38;;;19.70;99.90;;;;;;5074094;28;20041;-86
2022/09/15 09:59:49;;;;;;;0.70;0.65;;;19.60;99.90;;;;;;5053285;28;20049;-84
2022/09/15 10:02:17;;;;;;;1.17;1.00;;;19.60;99.90;;;;;;5051725;28;20028;-86
2022/09/15 10:05:16;;;;;;;3.30;0.83;;;19.70;99.90;;;;;;5068313;28;20108;-86
2022/09/15 10:07:44;;;;;;;1.52;0.80;;;19.70;99.90;;;;;;5066716;28;20287;-86
2022/09/15 10:10:31;;;;;;;1.38;0.90;;;19.80;99.90;;;;;;5063139;28;20075;-86
2022/09/15 10:12:58;;;;;;;2.58;1.27;;;19.80;99.90;;;;;;5055957;28;20048;-86
2022/09/15 10:15:26;;;;;;;1.17;0.88;;;20.00;99.90;;;;;;5069311;28;20123;-86
2022/09/15 10:17:54;;;;;;;0.90;0.90;;;20.40;99.90;;;;;;5053472;28;20025;-86
2022/09/15 10:20:46;;;;;;;1.00;0.88;;;20.60;99.90;;;;;;5056153;28;20037;-86
2022/09/15 10:23:21;;;;;;;1.25;1.15;;;20.50;99.90;;;;;;5057316;28;20091;-86
2022/09/15 10:25:47;;;;;;;3.58;1.58;;;20.30;99.90;;;;;;5072831;28;20719;-86
2022/09/15 10:28:21;;;;;;;2.55;1.00;;;20.10;99.90;;;;;;5054202;28;20032;-86
2022/09/15 10:31:10;;;;;;;1.10;1.00;;;20.10;99.90;;;;;;5054746;28;20025;-86
2022/09/15 10:33:37;;;;;;;0.93;0.77;;;19.90;99.90;;;;;;5050865;28;20449;-86
2022/09/15 10:36:16;;;;;;;1.45;0.98;;;19.80;99.90;;;;;;5073932;28;20032;-85
2022/09/15 10:38:47;;;;;;;1.98;1.10;;;19.80;99.90;;;;;;5050831;28;20485;-86
2022/09/15 10:41:13;;;;;;;0.93;0.68;;;19.80;99.90;;;;;;5046435;28;20018;-86
2022/09/15 10:43:56;;;;;;;1.83;0.88;;;19.80;99.90;;;;;;5071989;28;20025;-86
2022/09/15 10:46:35;;;;;;;1.77;1.00;;;19.80;99.90;;;;;;5072535;28;20029;-86
2022/09/15 10:49:06;;;;;;;1.08;0.90;;;19.80;99.90;;;;;;5044313;28;20081;-86
2022/09/15 10:51:32;;;;;;;2.15;0.98;;;19.70;99.90;;;;;;5057667;28;20025;-87
2022/09/15 10:54:13;;;;;;;1.00;1.00;;;19.80;99.90;;;;;;5041890;28;20117;-86
2022/09/15 10:56:47;;;;;;;0.80;0.80;;;19.90;99.90;;;;;;5057888;28;20488;-86
2022/09/15 10:59:25;;;;;;;1.95;1.10;;;19.90;99.90;;;;;;5042702;28;20032;-86
2022/09/15 11:02:23;;;;;;;2.20;1.00;;;19.90;99.90;;;;;;5075713;28;20028;-86
2022/09/15 11:05:17;;;;;;;2.13;1.08;;;20.00;99.90;;;;;;5057077;28;20029;-86
2022/09/15 11:08:11;;;;;;;2.35;1.00;;;19.80;99.90;;;;;;5074243;28;20098;-86
2022/09/15 11:10:42;;;;;;;2.50;0.80;;;19.90;99.90;;;;;;5033945;28;20132;-86
2022/09/15 11:13:08;;;;;;;1.40;1.05;;;19.80;99.90;;;;;;5023721;28;20029;-87
2022/09/15 11:15:57;;;;;;;0.98;0.98;;;19.70;99.90;;;;;;5022136;28;20525;-87
2022/09/15 11:18:56;;;;;;;1.67;1.15;;;19.70;99.90;;;;;;5041360;28;20029;-86
2022/09/15 11:21:32;;;;;;;2.85;1.25;;;19.90;99.90;;;;;;5022149;28;20026;-87
2022/09/15 11:24:22;;;;;;;3.38;1.55;;;20.00;99.90;;;;;;5040333;28;20033;-86
2022/09/15 11:27:05;;;;;;;1.05;0.98;;;20.00;99.90;;;;;;5021048;28;20117;-86
2022/09/15 11:30:25;;;;;;;0.90;0.90;;;20.20;99.90;;;;;;5021939;28;20022;-86
2022/09/15 11:33:18;;;;;;;1.75;1.10;;;20.10;99.90;;;;;;4925956;29;20043;-86
2022/09/15 11:35:55;;;;;;;1.63;1.17;;;20.10;99.90;;;;;;5018575;28;20030;-86
2022/09/15 11:38:46;;;;;;;1.55;1.05;;;20.30;99.90;;;;;;5034196;28;20116;-86
2022/09/15 11:41:15;;;;;;;1.58;1.30;;;20.50;99.90;;;;;;5023267;28;20033;-86
2022/09/15 11:43:49;;;;;;;2.22;1.10;;;20.40;99.90;;;;;;5059179;28;20079;-87
2022/09/15 11:46:22;;;;;;;1.60;1.30;;;20.30;99.90;;;;;;5068623;28;20082;-86
2022/09/15 11:49:12;;;;;;;5.80;1.30;;;20.10;99.90;;;;;;5045404;28;20390;-86
2022/09/15 11:51:43;;;;;;;1.88;0.93;;;19.80;99.90;;;;;;5075780;28;20025;-86
2022/09/15 11:54:18;;;;;;;2.00;1.20;;;19.80;99.90;;;;;;5059459;28;20118;-86
2022/09/15 11:56:46;;;;;;;1.45;1.35;;;19.80;99.90;;;;;;5073838;28;20025;-87
2022/09/15 11:59:31;;;;;;;1.65;1.13;;;19.90;99.90;;;;;;5058528;28;20785;-85
2022/09/15 12:02:27;;;;;;;1.30;1.20;;;20.00;99.90;;;;;;5054817;28;20033;-86
2022/09/15 12:05:20;;;;;;;1.50;1.33;;;20.00;99.90;;;;;;5047767;28;20029;-86
2022/09/15 12:08:11;;;;;;;1.27;1.05;;;20.10;99.90;;;;;;5053358;28;20028;-86
2022/09/15 12:10:42;;;;;;;1.77;1.15;;;20.10;99.90;;;;;;5052836;28;20045;-87
2022/09/15 12:13:19;;;;;;;1.40;1.30;;;20.00;99.90;;;;;;5074281;28;20366;-86
2022/09/15 12:15:49;;;;;;;1.47;1.23;;;20.00;99.90;;;;;;5048307;28;20080;-86
2022/09/15 12:18:33;;;;;;;2.38;1.20;;;19.90;99.90;;;;;;5047575;28;20283;-86
2022/09/15 12:21:26;;;;;;;1.65;1.13;;;20.00;99.90;;;;;;5043425;28;20032;-86
2022/09/15 12:24:01;;;;;;;1.00;1.00;;;19.90;99.90;;;;;;5075478;28;20029;-87
2022/09/15 12:26:31;;;;;;;1.08;1.08;;;19.80;99.90;;;;;;5049203;28;20035;-86
2022/09/15 12:29:22;;;;;;;1.80;1.00;;;19.80;99.90;;;;;;5053396;28;20117;-87
2022/09/15 12:32:18;;;;;;;3.38;1.15;;;20.00;99.90;;;;;;5051533;28;20041;-86
2022/09/15 12:34:56;;;;;;;1.35;1.20;;;20.00;99.90;;;;;;5074769;28;20029;-86
2022/09/15 12:37:24;;;;;;;3.00;0.90;;;20.00;99.90;;;;;;5074421;28;20025;-86
2022/09/15 12:39:50;;;;;;;1.13;1.08;;;20.10;99.90;;;;;;5053856;28;20123;-86
2022/09/15 12:42:20;;;;;;;1.60;1.20;;;20.40;99.90;;;;;;5056491;28;20083;-86
2022/09/15 12:45:17;;;;;;;2.83;1.48;;;20.50;99.90;;;;;;5048900;28;20028;-86
2022/09/15 12:48:12;;;;;;;1.63;1.00;;;20.40;99.90;;;;;;5053978;28;20028;-86
2022/09/15 12:50:41;;;;;;;0.82;0.82;;;20.50;99.90;;;;;;5056599;28;20053;-86
2022/09/15 12:53:19;;;;;;;0.77;0.77;;;20.60;99.90;;;;;;5058220;28;20450;-86
2022/09/15 12:55:54;;;;;;;2.35;1.30;;;20.70;99.90;;;;;;5060472;28;20450;-86
2022/09/15 12:58:31;;;;;;;1.20;1.10;;;20.70;99.90;;;;;;5058286;28;20489;-86
2022/09/15 13:01:16;;;;;;;1.50;1.23;;;20.90;99.90;;;;;;5057019;28;20134;-86
2022/09/15 13:03:42;;;;;;;1.08;1.05;;;21.10;99.90;;;;;;5063933;28;20029;-86
2022/09/15 13:06:19;;;;;;;1.48;1.20;;;21.40;99.90;;;;;;5063796;28;20459;-86
2022/09/15 13:08:50;;;;;;;2.20;1.08;;;21.50;99.90;;;;;;5066761;28;20045;-86
2022/09/15 13:11:37;;;;;;;1.42;1.08;;;21.30;99.90;;;;;;5066999;28;20216;-86
2022/09/15 13:14:02;;;;;;;1.93;1.03;;;20.90;99.90;;;;;;5056058;28;20025;-86
2022/09/15 13:16:42;;;;;;;1.40;1.30;;;20.60;99.90;;;;;;5077004;28;20329;-86